Time;durP1;ratioP1;P1;durP2;ratioP2;P2;SDS_P1;SDS_P2;PMS_P1;PMS_P2;Temp;Humidity;BMP_temperature;BMP_pressure;BME280_temperature;BME280_humidity;BME280_pressure;Samples;Min_cycle;Max_cycle;Signal;HPM_P1;HPM_P2
2022/02/11 00:01:41;;;;;;;4.97;0.98;;;;;;;2.45;59.12;98951.66;5074344;28;20112;-55
2022/02/11 00:04:20;;;;;;;5.28;0.90;;;;;;;2.42;58.74;98936.00;5074078;28;20028;-52
2022/02/11 00:09:12;;;;;;;4.82;1.10;;;;;;;2.41;58.58;98943.09;5074633;28;20037;-53
2022/02/11 00:11:40;;;;;;;3.30;1.05;;;;;;;2.41;59.08;98934.31;5073413;28;20064;-53
2022/02/11 00:14:07;;;;;;;3.83;0.90;;;;;;;2.39;58.28;98947.59;5074132;28;20040;-54
2022/02/11 00:16:34;;;;;;;2.65;0.75;;;;;;;2.35;58.42;98938.16;5073877;28;20044;-55
2022/02/11 00:19:00;;;;;;;3.00;0.90;;;;;;;2.34;58.09;98949.69;5073475;28;20116;-55
2022/02/11 00:21:28;;;;;;;3.22;0.75;;;;;;;2.29;57.99;98936.78;5073714;28;20119;-55
2022/02/11 00:23:54;;;;;;;5.88;0.90;;;;;;;2.33;58.11;98947.97;5073574;28;20040;-52
2022/02/11 00:26:20;;;;;;;7.68;1.08;;;;;;;2.08;58.64;98901.94;5073993;28;20107;-53
2022/02/11 00:33:51;;;;;;;4.55;0.77;;;;;;;2.37;58.36;98938.91;5073930;28;20032;-55
2022/02/11 00:36:17;;;;;;;4.93;0.75;;;;;;;2.41;58.07;98944.88;5073651;28;20036;-53
2022/02/11 01:03:21;;;;;;;1.95;0.93;;;;;;;2.40;57.51;98940.53;5071889;28;20576;-53
2022/02/11 01:05:46;;;;;;;3.72;1.00;;;;;;;2.37;57.21;98922.25;5055338;28;20499;-54
2022/02/11 01:08:13;;;;;;;3.95;0.80;;;;;;;2.35;57.21;98924.97;5073045;28;20032;-54
2022/02/11 01:10:38;;;;;;;4.97;0.88;;;;;;;2.24;57.30;98919.50;5072905;28;20124;-51
2022/02/11 01:13:04;;;;;;;3.95;1.00;;;;;;;2.33;57.30;98924.22;5073267;28;20104;-57
2022/02/11 01:15:32;;;;;;;2.58;0.88;;;;;;;2.35;57.29;98939.97;5073137;28;20028;-54
2022/02/11 01:18:01;;;;;;;3.05;0.73;;;;;;;2.36;57.54;98939.88;5073141;28;20049;-56
2022/02/11 01:28:31;;;;;;;5.53;0.98;;;;;;;2.02;56.92;98886.47;5072874;28;20032;-48
2022/02/11 01:31:08;;;;;;;3.40;0.75;;;;;;;2.36;57.13;98916.09;5071460;28;20467;-53
2022/02/11 01:34:08;;;;;;;7.78;0.98;;;;;;;2.30;57.00;98913.84;5073007;28;20504;-55
2022/02/11 01:36:51;;;;;;;4.35;0.98;;;;;;;2.34;57.47;98928.53;5072730;28;20029;-52
2022/02/11 01:50:14;;;;;;;7.15;1.00;;;;;;;2.32;57.29;98911.13;5072531;28;20035;-50
2022/02/11 01:52:30;;;;;;;5.95;0.88;;;;;;;2.33;56.72;98911.00;5069043;28;20044;-52
2022/02/11 02:11:26;;;;;;;5.05;0.98;;;;;;;1.92;57.22;98874.75;5071650;28;20032;-57
2022/02/11 02:14:22;;;;;;;7.93;1.35;;;;;;;2.18;57.38;98917.25;5071077;28;20028;-55
2022/02/11 02:57:05;;;;;;;3.70;0.85;;;;;;;1.98;58.23;98895.53;5071046;28;20033;-54
2022/02/11 04:22:47;;;;;;;3.13;1.10;;;;;;;2.05;58.22;98859.88;5070022;28;20032;-56
2022/02/11 04:53:01;;;;;;;4.68;1.17;;;;;;;2.06;58.46;98866.84;5069865;28;20042;-51
2022/02/11 04:55:24;;;;;;;8.35;1.80;;;;;;;2.07;58.42;98875.63;5073515;28;20032;-53
2022/02/11 05:00:34;;;;;;;4.35;1.10;;;;;;;2.00;58.72;98868.06;5073362;28;20438;-55
2022/02/11 05:02:59;;;;;;;7.93;1.02;;;;;;;2.01;58.52;98874.22;5072947;28;20032;-57
2022/02/11 05:05:25;;;;;;;11.85;1.40;;;;;;;2.09;58.29;98886.94;5073434;28;20075;-55
2022/02/11 05:07:51;;;;;;;8.32;1.50;;;;;;;2.08;58.44;98894.00;5072703;28;20476;-57
2022/02/11 05:10:16;;;;;;;3.67;1.10;;;;;;;1.79;58.33;98849.09;5072914;28;20097;-55
2022/02/11 05:12:44;;;;;;;6.00;1.20;;;;;;;2.09;58.50;98898.34;5072604;28;20428;-56
2022/02/11 05:15:11;;;;;;;6.28;1.60;;;;;;;2.03;58.66;98887.31;5073371;28;20024;-56
2022/02/11 05:17:37;;;;;;;5.80;1.20;;;;;;;2.14;58.65;98903.34;5051575;28;20056;-54
2022/02/11 05:20:05;;;;;;;5.78;1.42;;;;;;;2.15;58.86;98905.06;5052459;28;20540;-53
2022/02/11 05:22:31;;;;;;;8.45;1.60;;;;;;;2.15;59.01;98913.81;5052381;28;20036;-54
2022/02/11 05:24:56;;;;;;;8.23;1.30;;;;;;;2.16;58.56;98901.47;5052487;28;20029;-56
2022/02/11 05:27:22;;;;;;;6.97;1.50;;;;;;;2.21;58.57;98903.84;5065979;28;20024;-52
2022/02/11 05:29:47;;;;;;;6.10;1.40;;;;;;;2.22;58.35;98913.47;5072511;28;20040;-54
2022/02/11 05:32:13;;;;;;;4.38;1.17;;;;;;;2.20;58.61;98900.34;5072168;28;20073;-54
2022/02/11 05:34:38;;;;;;;3.47;1.55;;;;;;;2.27;58.71;98900.81;5073382;28;20036;-56
2022/02/11 05:37:04;;;;;;;8.95;1.50;;;;;;;2.25;58.56;98897.44;5072675;28;20104;-56
2022/02/11 05:39:29;;;;;;;5.60;2.05;;;;;;;2.25;57.96;98894.78;5072075;28;20926;-57
2022/02/11 05:41:55;;;;;;;5.07;1.52;;;;;;;2.36;58.44;98902.88;5072041;28;20087;-56
2022/02/11 05:44:20;;;;;;;4.15;1.50;;;;;;;2.38;58.08;98906.28;5072279;28;20032;-52
2022/02/11 05:46:46;;;;;;;4.47;1.30;;;;;;;2.36;58.23;98902.88;5072259;28;20029;-55
2022/02/11 05:49:11;;;;;;;6.68;1.63;;;;;;;2.39;58.22;98905.34;5071545;28;20063;-53
2022/02/11 05:51:37;;;;;;;4.43;1.35;;;;;;;2.41;57.85;98915.81;5072780;28;20028;-52
2022/02/11 05:54:02;;;;;;;5.95;1.60;;;;;;;2.41;58.32;98908.75;5072535;28;20530;-54
2022/02/11 05:56:28;;;;;;;7.13;1.70;;;;;;;2.43;58.13;98919.22;5072018;28;20030;-55
2022/02/11 05:58:53;;;;;;;7.55;1.85;;;;;;;2.43;58.54;98917.44;5053632;28;20052;-53
2022/02/11 06:01:19;;;;;;;5.43;1.48;;;;;;;2.49;58.33;98916.19;5049918;28;20032;-53
2022/02/11 06:03:45;;;;;;;7.97;1.90;;;;;;;2.48;58.54;98911.84;5051371;28;20051;-54
2022/02/11 06:06:10;;;;;;;4.25;1.35;;;;;;;2.53;58.06;98919.50;5051755;28;20058;-56
2022/02/11 06:08:36;;;;;;;4.95;1.60;;;;;;;2.52;58.49;98915.16;5067401;28;20470;-56
2022/02/11 06:11:01;;;;;;;3.45;1.30;;;;;;;2.47;58.75;98917.25;5071593;28;20047;-56
2022/02/11 06:13:27;;;;;;;5.20;1.20;;;;;;;2.25;58.17;98865.72;5071918;28;20048;-54
2022/02/11 06:15:53;;;;;;;4.82;1.20;;;;;;;2.54;57.94;98905.34;5070989;28;20104;-55
2022/02/11 06:18:18;;;;;;;5.35;1.55;;;;;;;2.44;58.09;98891.84;5071311;28;20436;-54
2022/02/11 06:20:44;;;;;;;3.13;1.30;;;;;;;2.50;57.99;98901.19;5062705;28;20105;-56
2022/02/11 06:23:09;;;;;;;4.35;1.40;;;;;;;2.54;58.29;98900.06;5065097;28;20388;-54
2022/02/11 06:25:35;;;;;;;6.93;1.70;;;;;;;2.63;58.35;98911.84;5064048;28;20092;-55
2022/02/11 06:28:01;;;;;;;9.55;1.80;;;;;;;2.69;58.00;98914.09;5069270;28;20467;-57
2022/02/11 06:30:26;;;;;;;8.38;1.63;;;;;;;2.77;57.77;98908.34;5071280;28;20037;-56
2022/02/11 06:32:53;;;;;;;5.53;1.70;;;;;;;2.83;57.51;98905.28;5071293;28;20107;-57
2022/02/11 06:35:18;;;;;;;7.75;1.70;;;;;;;2.86;57.39;98903.31;5071734;28;20135;-53
2022/02/11 06:37:45;;;;;;;8.95;2.08;;;;;;;2.90;57.66;98897.81;5070837;28;20111;-55
2022/02/11 06:40:13;;;;;;;4.47;1.67;;;;;;;2.93;57.68;98893.19;5049710;28;20043;-54
2022/02/11 06:42:38;;;;;;;4.35;1.05;;;;;;;3.02;57.21;98897.06;5051710;28;20379;-57
2022/02/11 06:45:04;;;;;;;6.65;1.80;;;;;;;3.10;56.95;98888.59;5051402;28;20043;-55
2022/02/11 06:47:30;;;;;;;4.50;1.70;;;;;;;3.09;57.38;98876.31;5050971;28;20029;-53
2022/02/11 06:49:56;;;;;;;6.15;1.95;;;;;;;3.32;56.52;98908.38;5060789;28;20436;-53
2022/02/11 06:52:21;;;;;;;8.05;2.10;;;;;;;3.32;56.64;98887.19;5071488;28;20374;-54
2022/02/11 06:54:47;;;;;;;8.25;1.75;;;;;;;3.41;56.54;98903.31;5070105;28;20108;-53
2022/02/11 06:57:12;;;;;;;7.93;2.10;;;;;;;3.41;56.34;98892.75;5069788;28;20036;-54
2022/02/11 06:59:38;;;;;;;9.60;1.70;;;;;;;3.48;56.13;98898.47;5069587;28;20024;-56
2022/02/11 07:02:09;;;;;;;8.55;1.70;;;;;;;3.70;55.71;98916.41;5069242;28;20028;-56
2022/02/11 07:04:34;;;;;;;7.35;1.98;;;;;;;3.84;55.51;98904.91;5069376;28;20028;-59
2022/02/11 07:07:00;;;;;;;8.68;1.88;;;;;;;3.97;54.72;98901.44;5069363;28;20040;-57
2022/02/11 07:09:25;;;;;;;8.35;1.83;;;;;;;4.18;54.43;98903.56;5070167;28;20039;-58
2022/02/11 07:11:51;;;;;;;6.78;2.08;;;;;;;4.42;53.79;98898.34;5070101;28;20039;-57
2022/02/11 07:14:16;;;;;;;6.70;1.75;;;;;;;4.64;53.73;98902.13;5069562;28;20448;-54
2022/02/11 07:16:44;;;;;;;7.85;2.15;;;;;;;4.75;53.03;98899.56;5068953;28;20074;-54
2022/02/11 07:19:10;;;;;;;8.52;1.95;;;;;;;4.86;52.70;98899.66;5069824;28;20029;-55
2022/02/11 07:21:35;;;;;;;6.25;1.83;;;;;;;4.91;52.56;98888.72;5069448;28;20036;-57
2022/02/11 07:24:01;;;;;;;7.70;2.13;;;;;;;5.07;52.14;98898.22;5069616;28;20056;-56
2022/02/11 07:26:26;;;;;;;7.97;1.70;;;;;;;5.20;51.38;98901.66;5069118;28;20024;-55
2022/02/11 07:28:52;;;;;;;10.20;1.88;;;;;;;5.32;51.87;98905.22;5069554;28;20028;-58
2022/02/11 07:31:17;;;;;;;5.88;2.28;;;;;;;5.38;51.94;98912.72;5070861;28;20123;-59
2022/02/11 07:33:43;;;;;;;5.53;2.08;;;;;;;5.38;51.78;98899.44;5070851;28;20036;-56
2022/02/11 07:36:10;;;;;;;4.43;1.92;;;;;;;5.40;51.22;98894.88;5069932;28;20103;-56
2022/02/11 07:38:36;;;;;;;5.38;2.05;;;;;;;5.51;51.05;98902.03;5070358;28;20043;-56
2022/02/11 07:41:02;;;;;;;7.82;2.60;;;;;;;5.51;51.26;98903.84;5070146;28;20036;-56
2022/02/11 07:43:28;;;;;;;8.77;2.17;;;;;;;5.48;50.78;98906.75;5064778;28;20066;-58
2022/02/11 07:45:53;;;;;;;6.97;2.03;;;;;;;5.48;51.44;98909.41;5068371;28;20470;-52
2022/02/11 07:48:19;;;;;;;8.25;2.10;;;;;;;5.51;50.74;98901.19;5069571;28;20124;-52
2022/02/11 07:50:44;;;;;;;8.30;1.98;;;;;;;5.54;51.09;98907.09;5063285;28;20445;-59
2022/02/11 07:53:10;;;;;;;11.88;2.10;;;;;;;5.56;51.31;98897.25;5068912;28;20032;-55
2022/02/11 07:55:35;;;;;;;12.27;2.88;;;;;;;5.68;50.54;98889.31;5069119;28;20514;-57
2022/02/11 07:58:01;;;;;;;12.05;2.08;;;;;;;5.81;50.43;98898.06;5069120;28;20482;-61
2022/02/11 08:00:27;;;;;;;6.43;2.03;;;;;;;5.92;49.87;98888.41;5048043;28;20074;-56
2022/02/11 08:02:52;;;;;;;6.60;1.85;;;;;;;5.99;49.35;98900.25;5063768;28;20037;-56
2022/02/11 08:05:18;;;;;;;13.05;2.15;;;;;;;5.68;49.60;98858.31;5068590;28;20021;-55
2022/02/11 08:07:44;;;;;;;8.00;2.33;;;;;;;5.88;49.74;98895.75;5048548;28;20033;-56
2022/02/11 08:10:11;;;;;;;7.03;2.08;;;;;;;5.77;49.93;98891.25;5069921;28;20330;-53
2022/02/11 08:12:37;;;;;;;5.50;1.63;;;;;;;5.74;50.12;98892.34;5070723;28;20038;-56
2022/02/11 08:15:03;;;;;;;9.25;1.90;;;;;;;5.79;50.50;98894.66;5072764;28;20029;-51
2022/02/11 08:17:29;;;;;;;6.38;2.08;;;;;;;5.95;49.54;98891.69;5072696;28;20036;-53
2022/02/11 08:19:55;;;;;;;9.45;2.20;;;;;;;6.15;49.69;98895.50;5071893;28;20044;-56
2022/02/11 08:22:20;;;;;;;7.13;1.90;;;;;;;6.43;48.82;98898.66;5073129;28;20028;-54
2022/02/11 08:24:46;;;;;;;7.72;2.05;;;;;;;6.46;48.56;98890.44;5071717;28;20056;-53
2022/02/11 08:27:14;;;;;;;11.10;2.35;;;;;;;6.56;48.56;98897.69;5072889;28;20036;-56
2022/02/11 08:29:43;;;;;;;9.25;2.28;;;;;;;6.57;48.37;98888.75;5073231;28;20438;-58
2022/02/11 08:32:11;;;;;;;10.02;2.22;;;;;;;6.66;48.06;98900.47;5056648;28;20127;-55
2022/02/11 08:34:39;;;;;;;6.35;1.85;;;;;;;6.45;47.99;98869.28;5072329;28;20472;-60
2022/02/11 08:37:05;;;;;;;9.98;2.60;;;;;;;6.72;47.82;98897.31;5072735;28;20028;-60
2022/02/11 08:39:34;;;;;;;7.35;2.25;;;;;;;6.68;47.88;98885.25;5073103;28;20127;-59
2022/02/11 08:42:00;;;;;;;9.25;2.63;;;;;;;6.73;47.99;98899.84;5072894;28;20021;-57
2022/02/11 08:44:26;;;;;;;6.10;2.03;;;;;;;6.69;47.94;98889.59;5072733;28;20032;-58
2022/02/11 08:46:51;;;;;;;7.72;2.20;;;;;;;6.72;47.51;98902.66;5072673;28;20081;-60
2022/02/11 08:49:17;;;;;;;7.45;2.10;;;;;;;6.77;47.89;98896.97;5073353;28;20040;-59
2022/02/11 08:51:42;;;;;;;6.40;1.95;;;;;;;6.82;47.68;98894.78;5051166;28;20037;-61
2022/02/11 08:54:08;;;;;;;9.48;2.30;;;;;;;6.73;47.50;98854.63;5055983;28;20024;-56
2022/02/11 08:56:34;;;;;;;6.60;1.88;;;;;;;7.09;47.08;98882.88;5072674;28;20427;-59
2022/02/11 08:59:00;;;;;;;10.60;2.38;;;;;;;7.21;46.70;98881.84;5072074;28;20029;-54
2022/02/11 09:01:25;;;;;;;9.23;2.17;;;;;;;7.39;46.41;98894.63;5067238;28;20024;-55
2022/02/11 09:03:51;;;;;;;6.90;2.25;;;;;;;7.38;45.74;98883.16;5072223;28;20155;-59
2022/02/11 09:06:18;;;;;;;4.38;1.95;;;;;;;7.15;46.44;98864.59;5073257;28;20070;-62
2022/02/11 09:08:44;;;;;;;6.18;2.00;;;;;;;7.33;46.44;98894.19;5072616;28;20040;-57
2022/02/11 09:11:12;;;;;;;7.18;2.10;;;;;;;7.39;46.43;98887.50;5072031;28;20040;-59
2022/02/11 09:13:37;;;;;;;10.77;2.20;;;;;;;7.42;45.93;98887.25;5071678;28;20979;-60
2022/02/11 09:16:04;;;;;;;7.90;2.05;;;;;;;7.52;45.72;98884.66;5071787;28;20044;-59
2022/02/11 09:18:30;;;;;;;7.18;2.20;;;;;;;7.61;45.49;98889.22;5053944;28;20052;-58
2022/02/11 09:20:56;;;;;;;6.60;1.83;;;;;;;7.60;45.33;98892.03;5071649;28;20486;-57
2022/02/11 09:23:23;;;;;;;7.63;1.90;;;;;;;7.59;45.58;98884.97;5070822;28;20047;-60
2022/02/11 09:25:51;;;;;;;8.18;2.35;;;;;;;7.60;45.18;98876.88;5071035;28;20032;-57
2022/02/11 09:28:16;;;;;;;9.15;2.35;;;;;;;7.66;45.65;98882.66;5072526;28;20119;-56
2022/02/11 09:30:42;;;;;;;7.13;1.92;;;;;;;7.62;45.52;98882.09;5071213;28;20107;-60
2022/02/11 09:33:08;;;;;;;6.22;1.83;;;;;;;7.64;45.91;98879.28;5071859;28;20154;-58
2022/02/11 09:35:34;;;;;;;6.20;2.20;;;;;;;7.63;45.40;98885.59;5071962;28;20033;-56
2022/02/11 09:38:00;;;;;;;5.65;2.15;;;;;;;7.37;45.46;98885.94;5071419;28;20036;-55
2022/02/11 09:40:26;;;;;;;8.02;2.05;;;;;;;7.13;46.56;98894.97;5071014;28;20381;-56
2022/02/11 09:42:55;;;;;;;9.80;2.35;;;;;;;6.97;47.17;98895.34;5050125;28;20124;-54
2022/02/11 09:45:22;;;;;;;8.57;1.85;;;;;;;6.91;47.19;98891.38;5065538;28;20056;-57
2022/02/11 09:47:50;;;;;;;9.20;3.53;;;;;;;6.93;47.21;98884.09;5071192;28;20112;-56
2022/02/11 09:50:18;;;;;;;8.57;2.42;;;;;;;7.09;46.71;98889.03;5071300;28;20116;-56
2022/02/11 09:52:48;;;;;;;10.68;2.25;;;;;;;7.16;46.99;98887.59;5071732;28;20031;-54
2022/02/11 09:55:32;;;;;;;13.23;2.80;;;;;;;7.13;46.89;98881.66;5071269;28;20028;-54
2022/02/11 09:58:00;;;;;;;8.93;2.20;;;;;;;7.21;46.39;98902.31;5071265;28;20032;-56
2022/02/11 10:00:26;;;;;;;8.45;2.30;;;;;;;7.11;46.90;98880.94;5070379;28;20056;-57
2022/02/11 10:02:54;;;;;;;8.43;2.25;;;;;;;7.23;46.22;98887.91;5070785;28;20025;-53
2022/02/11 10:05:20;;;;;;;5.75;2.05;;;;;;;7.20;46.58;98885.50;5070812;28;20500;-51
2022/02/11 10:07:46;;;;;;;7.05;1.90;;;;;;;7.09;46.78;98883.72;5071137;28;20028;-56
2022/02/11 10:10:15;;;;;;;7.60;2.88;;;;;;;7.13;46.55;98879.84;5070984;28;20488;-55
2022/02/11 10:12:41;;;;;;;7.80;1.83;;;;;;;7.14;45.97;98875.34;5050177;28;20029;-58
2022/02/11 10:15:21;;;;;;;8.75;2.38;;;;;;;7.09;46.93;98853.59;5067038;28;20035;-58
2022/02/11 10:17:47;;;;;;;7.97;2.60;;;;;;;7.23;46.39;98884.41;5071656;28;20120;-62
2022/02/11 10:20:13;;;;;;;7.43;1.90;;;;;;;7.22;46.51;98886.22;5070856;28;20116;-61
2022/02/11 10:22:38;;;;;;;12.63;2.75;;;;;;;7.26;46.83;98881.50;5070968;28;20024;-58
2022/02/11 10:25:04;;;;;;;10.15;2.83;;;;;;;7.36;46.17;98886.91;5070318;28;20024;-58
2022/02/11 10:27:35;;;;;;;7.90;2.42;;;;;;;7.42;46.21;98891.72;5049201;28;20033;-57
2022/02/11 10:30:07;;;;;;;7.35;2.15;;;;;;;7.46;46.62;98896.66;5070511;28;20028;-60
2022/02/11 10:32:36;;;;;;;6.13;2.00;;;;;;;7.48;46.23;98899.22;5070579;28;20084;-60
2022/02/11 10:35:03;;;;;;;9.30;2.40;;;;;;;7.25;46.10;98883.31;5070727;28;20873;-62
2022/02/11 10:37:29;;;;;;;6.43;2.10;;;;;;;7.20;45.83;98888.16;5070135;28;20039;-56
2022/02/11 10:39:59;;;;;;;7.88;2.20;;;;;;;7.07;46.99;98884.81;5069033;28;20040;-61
2022/02/11 10:42:45;;;;;;;8.05;2.50;;;;;;;7.00;47.28;98873.81;5070062;28;20353;-61
2022/02/11 10:45:28;;;;;;;8.38;2.33;;;;;;;7.09;47.27;98886.38;5069883;28;20025;-60
2022/02/11 10:48:25;;;;;;;8.32;2.83;;;;;;;7.07;46.76;98887.47;5049571;28;20028;-59
2022/02/11 10:50:58;;;;;;;8.57;2.30;;;;;;;6.99;47.17;98873.00;5071293;28;20033;-63
2022/02/11 10:53:31;;;;;;;7.97;2.30;;;;;;;6.96;47.18;98881.19;5068379;28;20366;-62
2022/02/11 10:55:59;;;;;;;7.50;2.10;;;;;;;6.91;46.89;98891.38;5067547;28;20107;-66
2022/02/11 10:58:25;;;;;;;10.80;3.25;;;;;;;6.86;47.42;98882.91;5068589;28;20024;-63
2022/02/11 11:00:51;;;;;;;11.40;2.50;;;;;;;6.67;47.68;98862.28;5046182;28;20033;-65
2022/02/11 11:03:17;;;;;;;7.85;1.80;;;;;;;6.74;47.53;98903.38;5061452;28;20051;-60
2022/02/11 11:05:44;;;;;;;8.30;2.30;;;;;;;6.62;48.10;98897.22;5068719;28;20103;-60
2022/02/11 11:08:12;;;;;;;9.13;2.40;;;;;;;6.30;47.98;98861.56;5040629;28;20032;-62
2022/02/11 11:10:41;;;;;;;8.23;2.20;;;;;;;6.42;47.97;98901.44;5069237;28;20040;-60
2022/02/11 11:13:11;;;;;;;9.13;1.80;;;;;;;6.38;47.95;98905.28;5070464;28;20500;-60
2022/02/11 11:15:36;;;;;;;13.40;2.38;;;;;;;6.27;47.85;98898.16;5068766;28;20158;-61
2022/02/11 11:18:06;;;;;;;11.48;2.53;;;;;;;6.20;47.78;98904.91;5069837;28;20495;-60
2022/02/11 11:20:36;;;;;;;6.47;2.30;;;;;;;6.08;47.13;98896.94;5070583;28;20024;-58
2022/02/11 11:23:15;;;;;;;7.93;2.03;;;;;;;6.11;47.22;98904.66;5053058;28;20016;-59
2022/02/11 11:25:53;;;;;;;6.22;1.67;;;;;;;6.10;47.13;98900.31;5070327;28;20081;-60
2022/02/11 11:28:40;;;;;;;8.85;2.10;;;;;;;5.97;47.97;98897.72;5056763;28;20470;-59
2022/02/11 11:31:23;;;;;;;6.75;1.80;;;;;;;5.82;47.84;98902.41;5070636;28;20028;-60
2022/02/11 11:33:49;;;;;;;7.75;1.83;;;;;;;5.71;47.44;98902.34;5070221;28;20437;-61
2022/02/11 11:36:17;;;;;;;3.53;1.30;;;;;;;5.67;47.47;98896.44;5069852;28;20115;-58
2022/02/11 11:38:56;;;;;;;5.57;1.70;;;;;;;5.71;47.44;98900.56;5068258;28;20032;-61
2022/02/11 11:41:27;;;;;;;6.38;1.58;;;;;;;5.62;47.68;98876.50;5070541;28;20036;-62
2022/02/11 11:43:57;;;;;;;7.22;1.50;;;;;;;5.70;47.08;98903.31;5069507;28;20028;-61
2022/02/11 11:46:32;;;;;;;8.10;1.80;;;;;;;5.78;47.08;98903.56;5070094;28;20028;-60
2022/02/11 11:49:11;;;;;;;7.95;1.83;;;;;;;5.81;47.74;98907.81;5073376;28;20385;-61
2022/02/11 11:51:37;;;;;;;8.88;1.83;;;;;;;5.68;47.10;98899.94;5073555;28;20135;-61
2022/02/11 11:54:18;;;;;;;4.82;1.85;;;;;;;5.70;47.08;98905.97;5055417;28;20112;-61
2022/02/11 11:56:52;;;;;;;2.83;1.23;;;;;;;5.69;47.08;98904.28;5074281;28;20044;-61
2022/02/11 11:59:18;;;;;;;4.57;1.50;;;;;;;5.63;47.05;98910.88;5073611;28;20028;-56
2022/02/11 12:02:04;;;;;;;6.60;1.60;;;;;;;5.71;46.77;98905.00;5073730;28;20093;-62
2022/02/11 12:04:41;;;;;;;5.03;1.40;;;;;;;5.70;46.73;98900.66;5065478;28;20439;-63
2022/02/11 12:07:13;;;;;;;7.80;1.60;;;;;;;5.56;46.15;98909.66;5062678;28;20040;-62
2022/02/11 12:09:49;;;;;;;11.55;1.85;;;;;;;5.46;46.61;98898.88;5073031;28;20489;-61
2022/02/11 12:12:26;;;;;;;4.78;1.60;;;;;;;5.43;47.21;98905.28;5072749;28;20035;-62
2022/02/11 12:14:54;;;;;;;10.05;1.67;;;;;;;5.40;46.05;98904.66;5072681;28;20488;-64
2022/02/11 12:17:21;;;;;;;5.50;1.60;;;;;;;5.30;46.64;98905.34;5073096;28;20469;-62
2022/02/11 12:19:47;;;;;;;6.80;1.90;;;;;;;5.24;45.47;98900.47;5073863;28;20036;-62
2022/02/11 12:22:14;;;;;;;3.95;1.55;;;;;;;5.23;45.24;98908.56;5073031;28;20045;-62
2022/02/11 12:27:31;;;;;;;7.05;1.70;;;;;;;5.14;46.90;98899.47;5072743;28;20476;-62
2022/02/11 12:29:58;;;;;;;6.28;1.25;;;;;;;5.12;45.11;98904.88;5073793;28;20047;-64
2022/02/11 12:32:27;;;;;;;4.50;1.30;;;;;;;5.10;46.09;98904.13;5054896;28;20166;-61
2022/02/11 12:34:58;;;;;;;4.97;1.17;;;;;;;5.14;46.11;98915.38;5060623;28;20112;-63
2022/02/11 12:37:26;;;;;;;8.60;1.50;;;;;;;4.87;46.02;98876.63;5073847;28;20055;-61
2022/02/11 12:40:13;;;;;;;13.75;2.15;;;;;;;5.14;46.37;98908.25;5073544;28;20043;-61
2022/02/11 12:42:43;;;;;;;6.72;1.60;;;;;;;5.04;45.92;98915.19;5058155;28;20242;-63
2022/02/11 12:45:19;;;;;;;9.50;1.70;;;;;;;5.01;46.04;98899.50;5072583;28;20259;-62
2022/02/11 12:47:45;;;;;;;;;;;;;;;5.29;46.77;98916.88;5073736;28;20029;-60
2022/02/11 12:50:10;;;;;;;;;;;;;;;5.40;46.79;98920.59;5073801;28;20288;-61
2022/02/11 12:52:38;;;;;;;4.43;1.13;;;;;;;5.19;45.12;98917.72;5072841;28;20015;-61
2022/02/11 12:55:11;;;;;;;6.63;1.67;;;;;;;5.07;45.35;98924.75;5072513;28;20591;-61
2022/02/11 12:57:40;;;;;;;7.35;1.67;;;;;;;4.97;46.06;98921.91;5073393;28;20058;-62
2022/02/11 13:00:14;;;;;;;4.80;1.10;;;;;;;4.89;46.22;98911.84;5053695;28;20380;-60
2022/02/11 13:02:41;;;;;;;5.35;1.40;;;;;;;4.84;45.68;98924.59;5072324;28;20028;-62
2022/02/11 13:05:15;;;;;;;5.70;1.30;;;;;;;4.83;46.21;98933.50;5064397;28;20114;-61
2022/02/11 13:07:44;;;;;;;3.08;1.42;;;;;;;4.63;45.87;98917.22;5066183;28;20389;-62
2022/02/11 13:10:16;;;;;;;8.15;1.70;;;;;;;4.64;46.16;98924.19;5067195;28;20024;-62
2022/02/11 13:12:43;;;;;;;5.00;1.17;;;;;;;4.59;46.13;98934.28;5069661;28;20024;-63
2022/02/11 13:15:14;;;;;;;6.57;1.52;;;;;;;4.58;46.62;98937.88;5070835;28;20059;-60
2022/02/11 13:17:41;;;;;;;6.20;1.85;;;;;;;4.52;47.02;98946.25;5070314;28;20072;-62
2022/02/11 13:20:18;;;;;;;4.90;2.10;;;;;;;4.37;46.35;98905.78;5068301;28;20401;-61
2022/02/11 13:22:45;;;;;;;4.40;1.50;;;;;;;4.32;46.75;98914.03;5072031;28;20032;-63
2022/02/11 13:25:13;;;;;;;5.55;1.60;;;;;;;4.36;46.38;98930.59;5070104;28;20815;-55
2022/02/11 13:27:50;;;;;;;5.30;1.80;;;;;;;4.36;46.99;98950.00;5071376;28;20417;-57
2022/02/11 13:30:31;;;;;;;5.47;1.75;;;;;;;4.28;47.53;98945.22;5067015;28;20445;-58
2022/02/11 13:32:59;;;;;;;3.33;1.58;;;;;;;4.16;47.20;98941.59;5072030;28;20049;-59
2022/02/11 13:35:26;;;;;;;5.75;1.60;;;;;;;4.17;47.68;98953.03;5069171;28;20178;-57
2022/02/11 13:37:59;;;;;;;8.25;1.50;;;;;;;3.91;47.36;98905.34;5068279;28;20059;-58
2022/02/11 13:40:29;;;;;;;3.22;1.20;;;;;;;4.02;47.91;98939.03;5071079;28;20028;-56
2022/02/11 13:43:01;;;;;;;4.05;1.33;;;;;;;4.04;48.71;98960.97;5062754;28;20033;-57
2022/02/11 13:45:28;;;;;;;3.95;1.30;;;;;;;3.78;48.23;98926.50;5067060;28;20033;-60
2022/02/11 13:48:02;;;;;;;5.95;1.30;;;;;;;4.01;47.86;98963.81;5068170;28;20120;-60
2022/02/11 13:50:29;;;;;;;4.90;1.30;;;;;;;3.93;48.39;98955.56;5070515;28;20036;-56
2022/02/11 13:53:01;;;;;;;5.97;1.17;;;;;;;3.88;48.13;98956.72;5070995;28;20032;-59
2022/02/11 13:55:28;;;;;;;4.00;1.45;;;;;;;3.90;48.21;98961.06;5058425;28;20029;-59
2022/02/11 13:57:53;;;;;;;8.50;1.80;;;;;;;3.85;48.22;98969.31;5068162;28;20056;-57
2022/02/11 14:00:32;;;;;;;8.52;1.88;;;;;;;3.70;47.88;98934.94;5071775;28;20060;-57
2022/02/11 14:02:58;;;;;;;4.75;1.48;;;;;;;3.68;48.42;98946.59;5060850;28;20029;-58
2022/02/11 14:05:24;;;;;;;5.97;1.33;;;;;;;3.71;48.62;98963.13;5070044;28;20107;-57
2022/02/11 14:07:54;;;;;;;5.03;1.77;;;;;;;3.78;48.70;98973.31;5068127;28;20036;-55
2022/02/11 14:10:19;;;;;;;6.65;1.45;;;;;;;3.74;47.72;98967.38;5064374;28;20112;-58
2022/02/11 14:12:45;;;;;;;4.15;1.55;;;;;;;3.73;48.58;98971.81;5069853;28;20115;-57
2022/02/11 14:15:11;;;;;;;10.15;1.85;;;;;;;3.66;48.35;98967.03;5066106;28;20475;-57
2022/02/11 14:17:39;;;;;;;6.93;1.40;;;;;;;3.66;48.41;98967.03;5061912;28;20048;-62
2022/02/11 14:20:05;;;;;;;4.82;1.30;;;;;;;3.54;48.68;98974.00;5067884;28;20044;-62
2022/02/11 14:22:31;;;;;;;8.20;1.65;;;;;;;3.34;48.56;98944.38;5070226;28;20025;-61
2022/02/11 14:24:58;;;;;;;3.97;1.52;;;;;;;3.49;49.23;98976.94;5066761;28;20134;-59
2022/02/11 14:27:23;;;;;;;6.22;1.75;;;;;;;3.43;48.88;98972.03;5070168;28;20109;-57
2022/02/11 14:29:49;;;;;;;3.83;1.52;;;;;;;3.37;49.09;98960.03;5066210;28;20469;-64
2022/02/11 14:32:15;;;;;;;4.18;1.50;;;;;;;3.34;49.79;98964.69;5069356;28;20036;-62
2022/02/11 14:34:41;;;;;;;6.03;1.65;;;;;;;3.38;49.60;98974.97;5070202;28;20481;-68
2022/02/11 14:37:08;;;;;;;4.13;1.27;;;;;;;3.17;49.47;98950.75;5069965;28;20028;-65
2022/02/11 14:39:33;;;;;;;5.40;1.30;;;;;;;3.37;49.09;98990.94;5069616;28;20036;-63
2022/02/11 14:42:02;;;;;;;4.65;1.30;;;;;;;3.35;48.83;98990.19;5069608;28;20036;-68
2022/02/11 14:44:32;;;;;;;5.95;1.70;;;;;;;3.33;49.03;98995.59;5070383;28;20032;-63
2022/02/11 14:47:04;;;;;;;5.18;1.60;;;;;;;3.32;49.29;98987.75;5069283;28;20459;-61
2022/02/11 14:49:30;;;;;;;6.75;1.33;;;;;;;3.19;50.13;98982.38;5069620;28;20025;-63
2022/02/11 14:52:04;;;;;;;3.95;1.35;;;;;;;3.29;50.03;99000.22;5070312;28;20024;-61
2022/02/11 14:54:35;;;;;;;8.50;1.80;;;;;;;3.28;50.51;99009.09;5069891;28;20107;-59
2022/02/11 14:57:01;;;;;;;6.05;1.60;;;;;;;3.28;49.96;99001.16;5069096;28;20040;-60
2022/02/11 14:59:27;;;;;;;8.43;1.95;;;;;;;3.29;50.26;99005.50;5069209;28;20763;-54
2022/02/11 15:01:54;;;;;;;5.82;1.60;;;;;;;3.28;50.30;99014.41;5070442;28;20351;-59
2022/02/11 15:04:20;;;;;;;5.57;1.50;;;;;;;3.30;51.15;99009.03;5049795;28;20025;-59
2022/02/11 15:06:48;;;;;;;7.15;1.63;;;;;;;3.29;50.41;99010.81;5067515;28;20489;-56
2022/02/11 15:09:14;;;;;;;6.90;1.45;;;;;;;3.28;50.69;99019.69;5068805;28;20040;-58
2022/02/11 15:11:41;;;;;;;7.15;1.65;;;;;;;3.30;50.46;99019.59;5050978;28;20021;-58
2022/02/11 15:14:07;;;;;;;6.75;1.58;;;;;;;3.28;50.88;99019.69;5069536;28;20044;-58
2022/02/11 15:16:33;;;;;;;4.60;1.67;;;;;;;3.24;51.45;99009.38;5069395;28;20067;-60
2022/02/11 15:18:59;;;;;;;4.05;1.30;;;;;;;3.15;51.25;99002.91;5069842;28;20381;-56
2022/02/11 15:21:25;;;;;;;5.60;1.70;;;;;;;3.30;51.03;99028.38;5048043;28;20127;-61
2022/02/11 15:23:50;;;;;;;6.90;1.80;;;;;;;3.28;51.54;99040.84;5067421;28;20135;-60
2022/02/11 15:26:17;;;;;;;7.20;1.60;;;;;;;3.22;51.24;99028.03;5069351;28;20040;-57
2022/02/11 15:28:44;;;;;;;7.55;1.50;;;;;;;3.21;51.17;99033.41;5069465;28;20043;-63
2022/02/11 15:31:11;;;;;;;7.93;1.67;;;;;;;3.26;51.19;99042.75;5033074;28;20025;-59